Time;durP1;ratioP1;P1;durP2;ratioP2;P2;SDS_P1;SDS_P2;PMS_P1;PMS_P2;Temp;Humidity;BMP_temperature;BMP_pressure;BME280_temperature;BME280_humidity;BME280_pressure;Samples;Min_cycle;Max_cycle;Signal;HPM_P1;HPM_P2
2022/01/07 00:01:06;;;;;;;4.38;1.77;;;;;;;;;;5036204;28;20021;-82
2022/01/07 00:03:31;;;;;;;5.82;2.20;;;;;;;;;;5023139;28;20023;-81
2022/01/07 00:05:59;;;;;;;7.95;2.70;;;;;;;;;;5023125;28;20038;-82
2022/01/07 00:08:25;;;;;;;6.43;2.30;;;;;;;;;;5009447;28;20041;-82
2022/01/07 00:10:50;;;;;;;6.13;2.03;;;;;;;;;;5016024;28;20041;-80
2022/01/07 00:13:15;;;;;;;7.72;2.45;;;;;;;;;;5028872;28;20100;-81
2022/01/07 00:15:41;;;;;;;5.38;2.20;;;;;;;;;;5024745;28;20032;-81
2022/01/07 00:18:07;;;;;;;4.32;2.58;;;;;;;;;;5004343;28;20045;-82
2022/01/07 00:20:33;;;;;;;4.88;2.00;;;;;;;;;;5012324;28;20038;-81
2022/01/07 00:22:59;;;;;;;2.35;1.52;;;;;;;;;;5022634;28;20046;-82
2022/01/07 00:25:24;;;;;;;6.68;2.10;;;;;;;;;;5034057;28;20041;-82
2022/01/07 00:27:50;;;;;;;4.82;1.95;;;;;;;;;;5038561;28;20104;-82
2022/01/07 00:30:17;;;;;;;4.03;2.38;;;;;;;;;;5022234;28;20053;-82
2022/01/07 00:32:43;;;;;;;10.30;2.58;;;;;;;;;;5023405;28;20048;-81
2022/01/07 00:35:09;;;;;;;5.25;1.95;;;;;;;;;;5025287;28;20025;-80
2022/01/07 00:37:35;;;;;;;5.63;2.45;;;;;;;;;;5026817;28;20040;-82
2022/01/07 00:40:00;;;;;;;7.15;2.50;;;;;;;;;;5024866;28;20030;-81
2022/01/07 00:42:26;;;;;;;4.43;2.50;;;;;;;;;;5020301;28;20076;-83
2022/01/07 00:44:51;;;;;;;7.78;2.75;;;;;;;;;;5013479;28;20107;-82
2022/01/07 00:47:17;;;;;;;9.20;2.65;;;;;;;;;;5016793;28;21144;-79
2022/01/07 00:49:43;;;;;;;6.97;2.40;;;;;;;;;;5034629;28;20043;-81
2022/01/07 00:52:09;;;;;;;5.75;2.05;;;;;;;;;;5022859;28;20132;-81
2022/01/07 00:54:34;;;;;;;6.55;2.50;;;;;;;;;;5055705;28;20084;-81
2022/01/07 00:57:00;;;;;;;7.63;2.53;;;;;;;;;;5058544;28;20047;-81
2022/01/07 00:59:25;;;;;;;10.05;3.50;;;;;;;;;;5052018;28;20072;-82
2022/01/07 01:01:50;;;;;;;7.78;3.22;;;;;;;;;;5061469;28;20059;-82
2022/01/07 01:04:16;;;;;;;4.80;2.38;;;;;;;;;;5046415;28;20032;-81
2022/01/07 01:06:41;;;;;;;6.35;2.58;;;;;;;;;;5037715;28;20025;-81
2022/01/07 01:09:08;;;;;;;8.70;3.45;;;;;;;;;;5040203;28;20068;-82
2022/01/07 01:11:34;;;;;;;5.78;2.95;;;;;;;;;;5037117;28;20720;-80
2022/01/07 01:14:00;;;;;;;8.00;3.35;;;;;;;;;;5037598;28;20037;-82
2022/01/07 01:16:25;;;;;;;6.07;2.58;;;;;;;;;;5034628;28;20086;-82
2022/01/07 01:18:50;;;;;;;10.82;3.53;;;;;;;;;;5039988;28;20032;-81
2022/01/07 01:21:16;;;;;;;8.32;3.92;;;;;;;;;;5039131;28;20032;-82
2022/01/07 01:23:45;;;;;;;6.53;2.80;;;;;;;;;;5038543;28;20090;-83
2022/01/07 01:26:10;;;;;;;12.30;3.58;;;;;;;;;;5034493;28;20041;-82
2022/01/07 01:28:35;;;;;;;9.30;4.00;;;;;;;;;;5030137;28;20030;-81
2022/01/07 01:31:01;;;;;;;3.92;2.60;;;;;;;;;;5040205;28;20025;-81
2022/01/07 01:33:26;;;;;;;8.85;3.63;;;;;;;;;;5037646;28;20040;-81
2022/01/07 01:35:51;;;;;;;8.70;4.03;;;;;;;;;;5038565;28;20068;-82
2022/01/07 01:38:17;;;;;;;13.13;4.63;;;;;;;;;;5039887;28;20524;-82
2022/01/07 01:40:42;;;;;;;12.07;4.10;;;;;;;;;;5036522;28;20514;-82
2022/01/07 01:43:08;;;;;;;10.38;3.65;;;;;;;;;;5056240;28;20021;-80
2022/01/07 01:45:33;;;;;;;8.45;3.80;;;;;;;;;;5037722;28;20159;-81
2022/01/07 01:47:58;;;;;;;12.20;4.50;;;;;;;;;;5052750;28;20124;-82
2022/01/07 01:50:24;;;;;;;7.85;4.45;;;;;;;;;;5038836;28;20045;-82
2022/01/07 01:52:56;;;;;;;8.35;4.25;;;;;;;;;;5036444;28;20059;-83
2022/01/07 01:55:24;;;;;;;10.10;4.65;;;;;;;;;;5036822;28;20017;-82
2022/01/07 01:57:50;;;;;;;8.30;3.30;;;;;;;;;;5051914;28;20017;-82
2022/01/07 02:00:16;;;;;;;11.25;5.03;;;;;;;;;;5035370;28;20454;-82
2022/01/07 02:02:42;;;;;;;8.63;4.22;;;;;;;;;;5040968;28;20032;-81
2022/01/07 02:05:09;;;;;;;10.50;4.60;;;;;;;;;;5048128;28;20040;-82
2022/01/07 02:07:35;;;;;;;8.98;4.57;;;;;;;;;;5048316;28;20033;-82
2022/01/07 02:10:05;;;;;;;10.70;4.68;;;;;;;;;;5042835;28;20127;-82
2022/01/07 02:12:31;;;;;;;11.93;4.60;;;;;;;;;;5054325;28;20178;-80
2022/01/07 02:14:56;;;;;;;8.60;4.18;;;;;;;;;;5063796;28;20573;-82
2022/01/07 02:17:23;;;;;;;11.63;5.07;;;;;;;;;;5057526;28;20039;-82
2022/01/07 02:19:49;;;;;;;10.82;4.85;;;;;;;;;;5049897;28;20037;-82
2022/01/07 02:22:17;;;;;;;9.80;4.90;;;;;;;;;;5041102;28;20530;-82
2022/01/07 02:24:42;;;;;;;9.68;4.80;;;;;;;;;;5042880;28;20032;-82
2022/01/07 02:27:10;;;;;;;7.10;3.33;;;;;;;;;;5053911;28;20025;-81
2022/01/07 02:29:36;;;;;;;6.15;2.90;;;;;;;;;;5053269;28;20024;-83
2022/01/07 02:32:01;;;;;;;9.00;3.80;;;;;;;;;;5053876;28;20048;-83
2022/01/07 02:34:27;;;;;;;11.07;4.20;;;;;;;;;;5054585;28;20036;-82
2022/01/07 02:36:52;;;;;;;9.75;4.00;;;;;;;;;;5061192;28;20093;-82
2022/01/07 02:39:18;;;;;;;10.10;4.07;;;;;;;;;;5054901;28;20033;-82
2022/01/07 02:41:43;;;;;;;8.20;4.53;;;;;;;;;;5054077;28;20045;-82
2022/01/07 02:44:09;;;;;;;7.07;4.53;;;;;;;;;;5039547;28;20041;-82
2022/01/07 02:46:34;;;;;;;8.75;3.75;;;;;;;;;;5037704;28;20045;-82
2022/01/07 02:49:10;;;;;;;10.95;5.20;;;;;;;;;;5060299;28;20025;-82
2022/01/07 02:51:36;;;;;;;7.75;4.15;;;;;;;;;;5058160;28;20037;-83
2022/01/07 02:54:01;;;;;;;10.70;4.47;;;;;;;;;;5037247;28;20577;-82
2022/01/07 02:56:26;;;;;;;10.20;4.30;;;;;;;;;;5034434;28;20083;-82
2022/01/07 02:58:52;;;;;;;8.95;4.72;;;;;;;;;;5039834;28;20041;-82
2022/01/07 03:01:17;;;;;;;9.73;5.10;;;;;;;;;;5036662;28;20025;-82
2022/01/07 03:03:42;;;;;;;9.32;4.75;;;;;;;;;;5035368;28;20494;-82
2022/01/07 03:06:08;;;;;;;9.27;4.93;;;;;;;;;;5045639;28;20406;-82
2022/01/07 03:08:33;;;;;;;8.88;4.63;;;;;;;;;;5037633;28;20518;-82
2022/01/07 03:10:58;;;;;;;8.35;4.28;;;;;;;;;;5045531;28;20041;-82
2022/01/07 03:13:24;;;;;;;9.00;5.10;;;;;;;;;;5048319;28;20526;-82
2022/01/07 03:15:49;;;;;;;13.07;5.35;;;;;;;;;;5043510;28;20013;-81
2022/01/07 03:18:14;;;;;;;10.38;4.80;;;;;;;;;;5035646;28;20087;-80
2022/01/07 03:20:41;;;;;;;10.82;5.22;;;;;;;;;;5042645;28;20120;-81
2022/01/07 03:23:09;;;;;;;6.82;4.53;;;;;;;;;;5040149;28;20033;-81
2022/01/07 03:25:35;;;;;;;10.00;4.40;;;;;;;;;;5046527;28;20037;-82
2022/01/07 03:28:01;;;;;;;12.73;5.50;;;;;;;;;;5044549;28;20033;-82
2022/01/07 03:30:26;;;;;;;11.85;5.07;;;;;;;;;;5044503;28;20051;-81
2022/01/07 03:32:52;;;;;;;11.57;5.78;;;;;;;;;;5040483;28;20040;-82
2022/01/07 03:35:17;;;;;;;10.45;4.90;;;;;;;;;;5043072;28;20057;-82
2022/01/07 03:37:43;;;;;;;11.20;5.68;;;;;;;;;;5035227;28;20044;-82
2022/01/07 03:40:11;;;;;;;11.95;5.50;;;;;;;;;;5053425;28;20036;-82
2022/01/07 03:42:36;;;;;;;9.02;5.43;;;;;;;;;;5046834;28;20029;-81
2022/01/07 03:45:04;;;;;;;10.98;5.43;;;;;;;;;;5039798;28;20041;-82
2022/01/07 03:47:29;;;;;;;13.85;3.22;;;;;;;;;;5035931;28;20530;-82
2022/01/07 03:49:55;;;;;;;15.10;6.10;;;;;;;;;;5041962;28;20167;-81
2022/01/07 03:52:20;;;;;;;10.07;5.75;;;;;;;;;;5043149;28;20598;-82
2022/01/07 03:54:45;;;;;;;10.55;5.80;;;;;;;;;;5055384;28;20051;-81
2022/01/07 03:57:11;;;;;;;15.65;5.53;;;;;;;;;;5046838;28;20081;-82
2022/01/07 03:59:36;;;;;;;10.50;5.50;;;;;;;;;;5036343;28;20618;-82
2022/01/07 04:02:02;;;;;;;12.55;6.10;;;;;;;;;;5045443;28;20125;-82
2022/01/07 04:04:27;;;;;;;9.07;5.38;;;;;;;;;;5034898;28;20026;-82
2022/01/07 04:06:53;;;;;;;12.43;5.65;;;;;;;;;;5039273;28;20748;-82
2022/01/07 04:09:18;;;;;;;12.95;5.70;;;;;;;;;;5036626;28;20072;-82
2022/01/07 04:11:43;;;;;;;15.05;6.28;;;;;;;;;;5049362;28;20119;-81
2022/01/07 04:14:09;;;;;;;12.43;5.90;;;;;;;;;;5046382;28;20039;-82
2022/01/07 04:16:34;;;;;;;11.63;6.20;;;;;;;;;;5035951;28;20064;-82
2022/01/07 04:18:59;;;;;;;15.93;6.13;;;;;;;;;;5043325;28;20032;-81
2022/01/07 04:21:24;;;;;;;11.80;5.05;;;;;;;;;;5044080;28;20419;-81
2022/01/07 04:23:50;;;;;;;7.13;3.42;;;;;;;;;;5032991;28;20067;-82
2022/01/07 04:26:15;;;;;;;10.00;4.82;;;;;;;;;;5030529;28;20541;-82
2022/01/07 04:28:41;;;;;;;20.02;5.22;;;;;;;;;;5042055;28;20071;-83
2022/01/07 04:31:06;;;;;;;14.95;6.45;;;;;;;;;;5049918;28;20021;-81
2022/01/07 04:33:34;;;;;;;12.98;5.45;;;;;;;;;;5055018;28;20025;-81
2022/01/07 04:35:59;;;;;;;14.13;6.10;;;;;;;;;;5045605;28;20737;-81
2022/01/07 04:38:25;;;;;;;12.75;5.97;;;;;;;;;;5048400;28;20041;-81
2022/01/07 04:40:51;;;;;;;10.88;5.50;;;;;;;;;;5048973;28;20037;-81
2022/01/07 04:43:16;;;;;;;17.65;6.22;;;;;;;;;;5040984;28;20028;-82
2022/01/07 04:45:42;;;;;;;11.80;5.28;;;;;;;;;;5041786;28;20104;-82
2022/01/07 04:48:08;;;;;;;12.70;5.15;;;;;;;;;;5041505;28;20024;-82
2022/01/07 04:50:34;;;;;;;12.50;5.28;;;;;;;;;;5045672;28;20083;-82
2022/01/07 04:53:00;;;;;;;11.90;4.25;;;;;;;;;;5040558;28;20041;-81
2022/01/07 04:55:29;;;;;;;14.27;5.68;;;;;;;;;;5031292;28;20052;-81
2022/01/07 04:57:55;;;;;;;11.82;5.22;;;;;;;;;;5054604;28;20038;-82
2022/01/07 05:00:22;;;;;;;10.20;5.35;;;;;;;;;;5056885;28;20032;-82
2022/01/07 05:02:47;;;;;;;12.25;5.88;;;;;;;;;;5059208;28;20119;-82
2022/01/07 05:05:13;;;;;;;11.80;5.63;;;;;;;;;;5057035;28;20112;-81
2022/01/07 05:07:39;;;;;;;14.98;5.55;;;;;;;;;;5058384;28;20689;-82
2022/01/07 05:10:10;;;;;;;9.38;4.75;;;;;;;;;;5058777;28;20579;-81
2022/01/07 05:12:36;;;;;;;13.70;5.25;;;;;;;;;;5058119;28;20112;-82
2022/01/07 05:15:02;;;;;;;14.73;5.78;;;;;;;;;;5054638;28;20033;-82
2022/01/07 05:17:28;;;;;;;10.63;5.03;;;;;;;;;;5054885;28;20039;-83
2022/01/07 05:19:53;;;;;;;8.85;5.15;;;;;;;;;;5059755;28;20137;-82
2022/01/07 05:22:18;;;;;;;11.52;4.28;;;;;;;;;;5049124;28;20224;-82
2022/01/07 05:24:44;;;;;;;8.23;4.72;;;;;;;;;;5065579;28;20040;-82
2022/01/07 05:27:09;;;;;;;12.43;5.43;;;;;;;;;;5050422;28;20070;-81
2022/01/07 05:29:35;;;;;;;8.60;4.50;;;;;;;;;;5056638;28;20060;-81
2022/01/07 05:32:02;;;;;;;8.18;3.67;;;;;;;;;;5061764;28;20045;-81
2022/01/07 05:34:28;;;;;;;9.93;4.90;;;;;;;;;;5074116;28;20036;-81
2022/01/07 05:36:53;;;;;;;9.38;4.32;;;;;;;;;;5061506;28;20025;-82
2022/01/07 05:39:18;;;;;;;12.70;5.32;;;;;;;;;;5067035;28;20115;-82
2022/01/07 05:41:44;;;;;;;10.98;4.53;;;;;;;;;;5057340;28;20038;-81
2022/01/07 05:44:09;;;;;;;11.45;4.63;;;;;;;;;;5058886;28;20573;-82
2022/01/07 05:46:34;;;;;;;11.32;5.00;;;;;;;;;;5070679;28;20514;-81
2022/01/07 05:49:00;;;;;;;11.88;5.43;;;;;;;;;;5063469;28;20070;-81
2022/01/07 05:51:25;;;;;;;7.78;4.82;;;;;;;;;;5050097;28;20059;-81
2022/01/07 05:53:50;;;;;;;15.23;4.90;;;;;;;;;;5039227;28;20049;-82
2022/01/07 05:56:16;;;;;;;12.30;5.85;;;;;;;;;;5022791;28;20032;-82
2022/01/07 05:58:41;;;;;;;13.50;5.45;;;;;;;;;;5039830;28;20033;-80
2022/01/07 06:01:09;;;;;;;10.48;5.20;;;;;;;;;;5024861;28;20025;-81
2022/01/07 06:03:35;;;;;;;12.48;5.55;;;;;;;;;;5048744;28;20546;-81
2022/01/07 06:06:00;;;;;;;12.93;4.95;;;;;;;;;;5029565;28;20044;-81
2022/01/07 06:08:26;;;;;;;12.05;5.30;;;;;;;;;;5039565;28;20124;-82
2022/01/07 06:10:51;;;;;;;11.52;5.63;;;;;;;;;;5040193;28;20044;-79
2022/01/07 06:13:17;;;;;;;12.68;5.78;;;;;;;;;;5048112;28;20072;-82
2022/01/07 06:15:42;;;;;;;10.18;5.45;;;;;;;;;;5038864;28;20018;-82
2022/01/07 06:18:07;;;;;;;13.02;5.85;;;;;;;;;;5037002;28;20034;-82
2022/01/07 06:20:33;;;;;;;9.02;3.88;;;;;;;;;;5026355;28;20036;-81
2022/01/07 06:22:58;;;;;;;13.95;5.20;;;;;;;;;;5025045;28;20033;-81
2022/01/07 06:25:24;;;;;;;12.52;5.20;;;;;;;;;;5044442;28;20091;-81
2022/01/07 06:27:49;;;;;;;11.35;4.70;;;;;;;;;;5025517;28;20117;-81
2022/01/07 06:30:14;;;;;;;12.35;4.90;;;;;;;;;;5036914;28;20033;-81
2022/01/07 06:32:40;;;;;;;7.35;4.15;;;;;;;;;;5024385;28;20033;-81
2022/01/07 06:35:06;;;;;;;10.07;4.82;;;;;;;;;;5047778;28;20037;-82
2022/01/07 06:37:31;;;;;;;13.07;4.88;;;;;;;;;;5031019;28;20030;-82
2022/01/07 06:39:57;;;;;;;9.63;4.82;;;;;;;;;;5010869;28;20101;-81
2022/01/07 06:42:22;;;;;;;12.40;5.38;;;;;;;;;;5008847;28;20044;-80
2022/01/07 06:44:47;;;;;;;9.52;4.45;;;;;;;;;;5009375;28;20456;-77
2022/01/07 06:47:13;;;;;;;9.77;4.53;;;;;;;;;;5015024;28;20103;-81
2022/01/07 06:49:38;;;;;;;11.60;4.38;;;;;;;;;;4997557;28;20044;-81
2022/01/07 06:52:04;;;;;;;16.10;4.80;;;;;;;;;;5015435;28;20034;-81
2022/01/07 06:54:31;;;;;;;10.38;4.68;;;;;;;;;;5033001;28;20021;-81
2022/01/07 06:56:57;;;;;;;11.20;3.88;;;;;;;;;;5051519;28;20025;-82
2022/01/07 06:59:23;;;;;;;7.00;3.75;;;;;;;;;;5066435;28;20595;-81
2022/01/07 07:01:48;;;;;;;10.77;4.32;;;;;;;;;;5064331;28;20032;-81
2022/01/07 07:04:15;;;;;;;10.48;4.65;;;;;;;;;;5054569;28;20407;-81
2022/01/07 07:06:41;;;;;;;8.95;5.80;;;;;;;;;;5050452;28;20037;-81
2022/01/07 07:09:06;;;;;;;11.05;4.55;;;;;;;;;;5054387;28;20586;-81
2022/01/07 07:11:32;;;;;;;7.82;4.40;;;;;;;;;;5049190;28;20045;-78
2022/01/07 07:13:57;;;;;;;13.40;5.50;;;;;;;;;;5053061;28;20044;-76
2022/01/07 07:16:23;;;;;;;10.23;4.75;;;;;;;;;;5053717;28;20056;-78
2022/01/07 07:18:48;;;;;;;11.25;4.50;;;;;;;;;;5053030;28;20041;-78
2022/01/07 07:21:14;;;;;;;9.88;4.97;;;;;;;;;;5062243;28;20514;-79
2022/01/07 07:23:39;;;;;;;12.38;5.00;;;;;;;;;;5047980;28;20048;-78
2022/01/07 07:26:05;;;;;;;10.73;4.65;;;;;;;;;;5045779;28;20653;-78
2022/01/07 07:28:30;;;;;;;11.50;5.20;;;;;;;;;;5041585;28;20624;-80
2022/01/07 07:30:59;;;;;;;12.35;5.13;;;;;;;;;;5041273;28;20041;-80
2022/01/07 07:38:36;;;;;;;12.40;4.88;;;;;;;;;;5034982;28;20218;-79
2022/01/07 07:41:02;;;;;;;15.98;4.63;;;;;;;;;;5038401;28;20084;-80
2022/01/07 07:43:27;;;;;;;9.70;4.45;;;;;;;;;;5035127;28;20041;-78
2022/01/07 07:45:53;;;;;;;8.82;4.32;;;;;;;;;;5037232;28;20040;-75
2022/01/07 07:48:19;;;;;;;11.15;3.90;;;;;;;;;;5036186;28;20071;-75
2022/01/07 07:50:44;;;;;;;12.45;4.55;;;;;;;;;;5039864;28;20051;-75
2022/01/07 07:53:10;;;;;;;9.10;4.35;;;;;;;;;;5035388;28;20083;-74
2022/01/07 07:55:35;;;;;;;10.48;4.18;;;;;;;;;;5017487;28;20029;-75
2022/01/07 07:58:01;;;;;;;8.60;4.32;;;;;;;;;;5019201;28;20033;-75
2022/01/07 08:00:26;;;;;;;10.07;3.63;;;;;;;;;;5022242;28;20069;-73
2022/01/07 08:02:51;;;;;;;11.15;4.10;;;;;;;;;;5029945;28;20060;-72
2022/01/07 08:05:16;;;;;;;6.35;3.67;;;;;;;;;;5020245;28;20087;-71
2022/01/07 08:07:42;;;;;;;7.72;4.00;;;;;;;;;;5010815;28;20028;-71
2022/01/07 08:10:08;;;;;;;7.68;3.50;;;;;;;;;;5019927;28;20500;-71
2022/01/07 08:18:23;;;;;;;8.25;3.60;;;;;;;;;;4974397;28;20099;-71
2022/01/07 08:20:50;;;;;;;8.00;3.05;;;;;;;;;;5008016;28;20041;-72
2022/01/07 08:23:16;;;;;;;9.23;3.40;;;;;;;;;;5034826;28;20034;-72
2022/01/07 08:25:42;;;;;;;7.88;3.63;;;;;;;;;;5023038;28;20110;-72
2022/01/07 08:28:08;;;;;;;7.30;3.92;;;;;;;;;;5008524;28;20049;-72
2022/01/07 08:30:47;;;;;;;6.70;3.13;;;;;;;;;;4996923;28;20053;-72
2022/01/07 08:35:56;;;;;;;12.95;3.40;;;;;;;;;;5012327;28;20056;-73
2022/01/07 08:38:21;;;;;;;14.15;4.13;;;;;;;;;;5015314;28;20057;-72
2022/01/07 08:40:47;;;;;;;8.25;3.80;;;;;;;;;;5031486;28;20041;-72
2022/01/07 08:43:12;;;;;;;8.13;3.60;;;;;;;;;;5036838;28;20073;-72
2022/01/07 08:45:41;;;;;;;8.05;3.97;;;;;;;;;;5040876;28;20039;-72
2022/01/07 08:48:06;;;;;;;6.05;3.45;;;;;;;;;;5013463;28;20699;-72
2022/01/07 08:50:32;;;;;;;10.40;3.72;;;;;;;;;;5036381;28;20059;-72
2022/01/07 08:53:01;;;;;;;10.27;3.50;;;;;;;;;;5054186;28;20094;-75
2022/01/07 08:55:26;;;;;;;10.43;3.90;;;;;;;;;;5050909;28;20033;-76
2022/01/07 08:57:52;;;;;;;10.48;3.65;;;;;;;;;;5056830;28;20024;-76
2022/01/07 09:00:17;;;;;;;7.85;3.95;;;;;;;;;;5058978;28;20036;-75
2022/01/07 09:02:42;;;;;;;9.18;4.05;;;;;;;;;;5061458;28;20037;-75
2022/01/07 09:05:08;;;;;;;9.18;3.60;;;;;;;;;;5055074;28;20040;-75
2022/01/07 09:07:34;;;;;;;5.00;2.53;;;;;;;;;;5052461;28;20071;-75
2022/01/07 09:09:59;;;;;;;9.20;4.15;;;;;;;;;;5054466;28;20028;-73
2022/01/07 09:12:24;;;;;;;13.13;4.10;;;;;;;;;;5058951;28;20055;-72
2022/01/07 09:14:50;;;;;;;6.45;2.67;;;;;;;;;;5052446;28;20048;-70
2022/01/07 09:17:15;;;;;;;12.15;4.30;;;;;;;;;;5055461;28;20037;-70
2022/01/07 09:19:40;;;;;;;11.95;4.13;;;;;;;;;;5052824;28;20037;-71
2022/01/07 09:22:06;;;;;;;9.30;3.58;;;;;;;;;;5054497;28;20090;-70
2022/01/07 09:24:31;;;;;;;10.35;4.00;;;;;;;;;;5054257;28;20072;-70
2022/01/07 09:26:58;;;;;;;14.07;3.70;;;;;;;;;;5049472;28;20145;-74
2022/01/07 09:29:23;;;;;;;8.55;3.53;;;;;;;;;;5054923;28;20057;-77
2022/01/07 09:31:51;;;;;;;12.25;4.70;;;;;;;;;;5050884;28;20071;-81
2022/01/07 09:34:16;;;;;;;12.27;3.63;;;;;;;;;;5048783;28;20064;-84
2022/01/07 09:36:42;;;;;;;10.32;4.18;;;;;;;;;;5054339;28;20123;-84
2022/01/07 09:39:07;;;;;;;5.97;3.17;;;;;;;;;;5060264;28;20124;-83
2022/01/07 09:41:33;;;;;;;15.43;4.03;;;;;;;;;;5056858;28;20449;-82
2022/01/07 09:44:01;;;;;;;6.13;2.55;;;;;;;;;;5055915;28;20556;-79
2022/01/07 09:46:26;;;;;;;9.57;3.42;;;;;;;;;;5061341;28;20905;-84
2022/01/07 09:48:52;;;;;;;14.30;3.35;;;;;;;;;;5058674;28;20025;-78
2022/01/07 09:51:17;;;;;;;13.70;3.63;;;;;;;;;;5049413;28;20033;-77
2022/01/07 09:53:42;;;;;;;10.02;3.35;;;;;;;;;;5061820;28;20055;-76
2022/01/07 09:56:08;;;;;;;7.95;3.53;;;;;;;;;;5050747;28;20158;-74
2022/01/07 09:58:34;;;;;;;11.57;3.97;;;;;;;;;;5052468;28;20608;-74
2022/01/07 10:01:02;;;;;;;11.23;3.15;;;;;;;;;;5031594;28;20028;-74
2022/01/07 10:03:37;;;;;;;11.75;2.92;;;;;;;;;;5057245;28;20032;-74
2022/01/07 10:06:18;;;;;;;8.80;2.88;;;;;;;;;;5057993;28;20034;-74
2022/01/07 10:08:46;;;;;;;7.60;3.10;;;;;;;;;;5057890;28;20115;-74
2022/01/07 10:11:20;;;;;;;6.53;2.72;;;;;;;;;;5047239;28;20042;-73
2022/01/07 10:13:48;;;;;;;6.63;3.35;;;;;;;;;;5030101;28;20573;-74
2022/01/07 10:16:22;;;;;;;5.93;2.53;;;;;;;;;;5058333;28;20020;-74
2022/01/07 10:18:49;;;;;;;8.88;2.58;;;;;;;;;;5055543;28;20138;-75
2022/01/07 10:21:16;;;;;;;7.47;3.72;;;;;;;;;;5063379;28;20055;-74
2022/01/07 10:23:42;;;;;;;7.72;3.03;;;;;;;;;;5057217;28;20037;-74
2022/01/07 10:26:14;;;;;;;5.93;2.70;;;;;;;;;;5057488;28;20117;-75
2022/01/07 10:28:39;;;;;;;5.68;2.90;;;;;;;;;;5058492;28;20035;-75
2022/01/07 10:31:07;;;;;;;4.78;2.30;;;;;;;;;;5065089;28;20016;-75
2022/01/07 10:33:40;;;;;;;4.90;2.50;;;;;;;;;;5051509;28;20061;-75
2022/01/07 10:36:08;;;;;;;9.73;2.90;;;;;;;;;;5053961;28;20095;-75
2022/01/07 10:38:37;;;;;;;10.20;3.92;;;;;;;;;;5054969;28;20041;-75
2022/01/07 10:41:03;;;;;;;9.70;4.00;;;;;;;;;;5063213;28;20032;-74
2022/01/07 10:43:35;;;;;;;14.63;4.60;;;;;;;;;;5059467;28;20042;-75
2022/01/07 10:46:12;;;;;;;10.02;4.45;;;;;;;;;;5057640;28;20044;-74
2022/01/07 10:48:42;;;;;;;17.13;4.43;;;;;;;;;;5037162;28;20553;-78
2022/01/07 10:51:15;;;;;;;9.32;4.85;;;;;;;;;;5036010;28;20542;-75
2022/01/07 10:53:46;;;;;;;7.80;3.65;;;;;;;;;;5048344;28;20067;-75
2022/01/07 10:56:14;;;;;;;8.20;3.65;;;;;;;;;;5060100;28;20045;-74
2022/01/07 10:58:57;;;;;;;9.88;3.80;;;;;;;;;;5052608;28;20033;-75
2022/01/07 11:01:27;;;;;;;6.83;3.07;;;;;;;;;;5033989;28;21770;-74
2022/01/07 11:04:04;;;;;;;10.45;3.40;;;;;;;;;;5032796;28;20511;-75
2022/01/07 11:06:30;;;;;;;8.75;3.35;;;;;;;;;;5058579;28;20040;-75
2022/01/07 11:08:58;;;;;;;6.05;3.33;;;;;;;;;;5049921;28;20110;-75
2022/01/07 11:11:26;;;;;;;6.45;3.17;;;;;;;;;;5024315;28;20206;-75
2022/01/07 11:13:51;;;;;;;6.78;4.00;;;;;;;;;;5029733;28;20045;-81
2022/01/07 11:16:17;;;;;;;8.75;3.60;;;;;;;;;;5030375;28;20504;-76
2022/01/07 11:18:45;;;;;;;8.88;3.70;;;;;;;;;;5030005;28;20024;-78
2022/01/07 11:21:11;;;;;;;6.72;3.30;;;;;;;;;;5027158;28;20392;-74
2022/01/07 11:23:38;;;;;;;10.05;3.78;;;;;;;;;;5028066;28;20033;-74
2022/01/07 11:26:05;;;;;;;4.70;2.95;;;;;;;;;;5028841;28;20037;-75
2022/01/07 11:28:32;;;;;;;4.38;2.35;;;;;;;;;;5027253;28;20140;-76
2022/01/07 11:31:05;;;;;;;8.50;2.00;;;;;;;;;;5014945;28;21215;-75
2022/01/07 11:33:31;;;;;;;3.13;1.50;;;;;;;;;;5027888;28;20052;-76
2022/01/07 11:35:57;;;;;;;4.55;2.10;;;;;;;;;;5013695;28;20040;-77
2022/01/07 11:38:42;;;;;;;5.70;2.38;;;;;;;;;;5030747;28;20128;-75
2022/01/07 11:41:11;;;;;;;6.32;2.83;;;;;;;;;;5010786;28;20033;-74
2022/01/07 11:43:40;;;;;;;6.45;2.47;;;;;;;;;;5025652;28;20744;-74
2022/01/07 11:46:26;;;;;;;6.70;2.78;;;;;;;;;;5030015;28;20156;-75
2022/01/07 11:48:54;;;;;;;4.68;1.88;;;;;;;;;;5027559;28;20021;-76
2022/01/07 11:51:19;;;;;;;5.53;2.35;;;;;;;;;;5026813;28;20041;-75
2022/01/07 11:53:50;;;;;;;2.13;1.25;;;;;;;;;;5029377;28;20044;-76
2022/01/07 11:56:19;;;;;;;2.65;1.10;;;;;;;;;;5040731;28;20761;-75
2022/01/07 11:58:44;;;;;;;4.38;1.17;;;;;;;;;;5043679;28;20188;-75
2022/01/07 12:01:23;;;;;;;3.28;0.90;;;;;;;;;;5037331;28;20572;-76
2022/01/07 12:03:49;;;;;;;1.95;0.77;;;;;;;;;;5031965;28;20052;-76
2022/01/07 12:06:17;;;;;;;2.95;0.90;;;;;;;;;;5047987;28;20140;-76
2022/01/07 12:09:19;;;;;;;1.90;0.70;;;;;;;;;;5035986;28;20044;-76
2022/01/07 12:11:53;;;;;;;1.20;0.70;;;;;;;;;;5028704;28;20128;-75
2022/01/07 12:14:24;;;;;;;0.50;0.50;;;;;;;;;;5025226;28;20041;-75
2022/01/07 12:16:52;;;;;;;1.63;0.70;;;;;;;;;;5034371;28;20044;-75
2022/01/07 12:19:21;;;;;;;1.30;0.73;;;;;;;;;;5033643;28;20045;-75
2022/01/07 12:21:48;;;;;;;1.15;0.60;;;;;;;;;;5055786;28;20125;-75
2022/01/07 12:24:25;;;;;;;0.82;0.68;;;;;;;;;;5055101;28;20044;-76
2022/01/07 12:27:14;;;;;;;1.40;0.70;;;;;;;;;;5042391;28;20178;-75
2022/01/07 12:29:41;;;;;;;1.00;0.60;;;;;;;;;;5033148;28;20065;-75
2022/01/07 12:32:09;;;;;;;1.48;0.77;;;;;;;;;;5045256;28;20560;-75
2022/01/07 12:34:40;;;;;;;1.17;0.73;;;;;;;;;;5048663;28;20635;-75
2022/01/07 12:37:09;;;;;;;1.77;0.68;;;;;;;;;;5033581;28;20033;-75
2022/01/07 12:39:40;;;;;;;0.52;0.52;;;;;;;;;;5038502;28;20120;-75
2022/01/07 12:42:07;;;;;;;1.17;0.73;;;;;;;;;;5028745;28;20037;-74
2022/01/07 12:44:35;;;;;;;1.75;0.68;;;;;;;;;;5035623;28;20072;-71
2022/01/07 12:47:01;;;;;;;1.23;0.68;;;;;;;;;;5045474;28;20410;-74
2022/01/07 12:49:36;;;;;;;0.90;0.80;;;;;;;;;;5034925;28;20043;-74
2022/01/07 12:52:04;;;;;;;4.97;0.80;;;;;;;;;;5030165;28;20032;-73
2022/01/07 12:54:30;;;;;;;1.83;0.80;;;;;;;;;;5052441;28;20418;-76
2022/01/07 12:56:56;;;;;;;2.42;0.85;;;;;;;;;;5061794;28;20036;-74
2022/01/07 12:59:25;;;;;;;1.55;0.80;;;;;;;;;;5056754;28;20048;-73
2022/01/07 13:01:50;;;;;;;0.85;0.68;;;;;;;;;;5056991;28;20040;-74
2022/01/07 13:04:22;;;;;;;2.90;0.90;;;;;;;;;;5054827;28;20425;-74
2022/01/07 13:06:57;;;;;;;1.33;0.70;;;;;;;;;;5051295;28;20020;-73
2022/01/07 13:09:30;;;;;;;1.00;0.70;;;;;;;;;;5054596;28;20044;-74
2022/01/07 13:11:59;;;;;;;3.13;1.00;;;;;;;;;;5050502;28;20882;-75
2022/01/07 13:14:26;;;;;;;5.03;1.10;;;;;;;;;;5063482;28;20546;-74
2022/01/07 13:16:54;;;;;;;1.80;1.00;;;;;;;;;;5056897;28;20124;-76
2022/01/07 13:19:20;;;;;;;3.30;1.40;;;;;;;;;;5051038;28;20090;-76
2022/01/07 13:21:49;;;;;;;3.35;1.30;;;;;;;;;;5062188;28;20028;-76
2022/01/07 13:24:16;;;;;;;2.75;1.30;;;;;;;;;;5061467;28;20054;-71
2022/01/07 13:26:43;;;;;;;1.52;0.80;;;;;;;;;;5051207;28;20052;-76
2022/01/07 13:29:19;;;;;;;2.30;1.27;;;;;;;;;;5047313;28;20072;-74
2022/01/07 13:31:47;;;;;;;2.80;1.20;;;;;;;;;;5057168;28;20539;-76
2022/01/07 13:34:24;;;;;;;3.55;1.30;;;;;;;;;;5054806;28;20021;-77
2022/01/07 13:36:50;;;;;;;2.45;1.23;;;;;;;;;;5053440;28;20407;-79
2022/01/07 13:39:19;;;;;;;3.90;1.10;;;;;;;;;;5048961;28;20029;-72
2022/01/07 13:41:51;;;;;;;1.92;0.93;;;;;;;;;;5055549;28;20124;-75
2022/01/07 13:44:16;;;;;;;1.58;0.80;;;;;;;;;;5061891;28;20037;-73
2022/01/07 13:46:49;;;;;;;5.65;1.35;;;;;;;;;;5056823;28;20620;-73
2022/01/07 13:49:15;;;;;;;0.63;0.55;;;;;;;;;;5045999;28;20108;-75
2022/01/07 13:51:50;;;;;;;3.53;1.35;;;;;;;;;;5058037;28;20036;-72
2022/01/07 13:54:25;;;;;;;3.28;1.55;;;;;;;;;;5048201;28;20057;-71
2022/01/07 13:57:05;;;;;;;3.33;1.20;;;;;;;;;;5044982;28;20076;-76
2022/01/07 13:59:47;;;;;;;0.95;0.73;;;;;;;;;;5035756;28;20037;-73
2022/01/07 14:02:24;;;;;;;1.90;1.00;;;;;;;;;;5035227;28;20486;-70
2022/01/07 14:04:57;;;;;;;1.15;0.80;;;;;;;;;;5036405;28;20391;-73
2022/01/07 14:07:25;;;;;;;;;;;;;;;;;;5039469;28;20028;-75
2022/01/07 14:10:19;;;;;;;3.00;0.82;;;;;;;;;;5037906;28;19913;-72
2022/01/07 14:12:58;;;;;;;0.95;0.70;;;;;;;;;;5034232;28;20093;-75
2022/01/07 14:15:29;;;;;;;1.35;0.80;;;;;;;;;;5022924;28;20045;-74
2022/01/07 14:18:15;;;;;;;2.22;1.00;;;;;;;;;;5035339;28;20073;-74
2022/01/07 14:20:49;;;;;;;2.65;0.95;;;;;;;;;;5039340;28;20036;-73
2022/01/07 14:23:26;;;;;;;2.97;1.00;;;;;;;;;;5028615;28;20490;-79
2022/01/07 14:26:08;;;;;;;4.35;1.15;;;;;;;;;;5051907;28;20049;-79
2022/01/07 14:28:35;;;;;;;1.63;1.10;;;;;;;;;;5055285;28;21054;-78
2022/01/07 14:31:01;;;;;;;1.83;0.90;;;;;;;;;;5037218;28;20565;-78
2022/01/07 14:33:27;;;;;;;0.60;0.60;;;;;;;;;;5043912;28;20037;-78
2022/01/07 14:35:53;;;;;;;1.73;0.80;;;;;;;;;;5021479;28;20037;-77
2022/01/07 14:38:18;;;;;;;2.95;1.10;;;;;;;;;;5036179;28;20049;-80
2022/01/07 14:40:44;;;;;;;3.17;1.10;;;;;;;;;;5037404;28;20037;-85
2022/01/07 14:43:10;;;;;;;4.20;1.02;;;;;;;;;;5043854;28;20031;-75
2022/01/07 14:45:36;;;;;;;2.50;1.48;;;;;;;;;;5036840;28;20025;-72
2022/01/07 14:48:02;;;;;;;6.10;1.75;;;;;;;;;;5035906;28;20753;-74
2022/01/07 14:50:28;;;;;;;8.52;2.90;;;;;;;;;;5031258;28;20051;-73
2022/01/07 14:52:54;;;;;;;3.00;1.67;;;;;;;;;;5038067;28;20044;-76